createdAt,value
2022-11-13T15:08:16.666Z,56.66
2022-11-13T15:15:17.356Z,56.14
2022-11-13T15:25:27.206Z,56.16
2022-11-13T15:28:22.047Z,56.39
2022-11-13T15:42:36.407Z,56.22
2022-11-13T15:48:57.815Z,56.77
2022-11-13T15:52:06.914Z,56.79
2022-11-13T15:55:16.673Z,56.80
2022-11-13T15:58:33.362Z,56.63
2022-11-13T16:01:50.011Z,56.83
2022-11-13T16:07:59.701Z,57.39
2022-11-13T16:10:58.027Z,57.34
2022-11-13T16:13:48.433Z,57.69
2022-11-13T16:16:39.010Z,57.49
2022-11-13T16:19:32.710Z,57.63
2022-11-13T16:22:25.020Z,57.81
2022-11-13T16:25:16.537Z,57.82
2022-11-13T16:28:15.592Z,58.00
2022-11-13T16:31:13.267Z,58.04
2022-11-13T16:34:03.835Z,58.44
2022-11-13T16:37:10.859Z,58.42
2022-11-13T16:40:10.049Z,58.48
2022-11-13T16:43:12.093Z,58.63
2022-11-13T16:46:25.729Z,58.90
2022-11-13T16:49:22.462Z,58.99
2022-11-13T16:52:14.374Z,59.07
2022-11-13T16:55:08.599Z,59.28
2022-11-13T16:58:24.623Z,59.45
2022-11-13T17:01:30.351Z,59.53
2022-11-13T17:04:20.663Z,59.59
2022-11-13T17:07:22.337Z,59.62
2022-11-13T17:10:32.408Z,59.72
2022-11-13T17:13:28.025Z,59.87
2022-11-13T17:16:32.316Z,59.92
2022-11-13T17:19:26.974Z,59.92
2022-11-13T17:22:25.987Z,60.06
2022-11-13T17:25:31.101Z,60.12
2022-11-13T17:28:19.986Z,60.15
2022-11-13T17:31:16.811Z,60.26
2022-11-13T17:34:10.747Z,60.21
2022-11-13T17:37:06.472Z,60.37
2022-11-13T17:39:58.813Z,60.44
2022-11-13T17:42:55.613Z,60.45
2022-11-13T17:48:52.853Z,60.63
2022-11-13T17:51:48.735Z,60.68
2022-11-13T17:54:38.263Z,60.63
2022-11-13T17:57:44.125Z,60.85
2022-11-13T18:00:34.177Z,60.90
2022-11-13T18:03:21.989Z,61.02
2022-11-13T18:06:19.710Z,60.97
2022-11-13T18:09:14.116Z,61.05
2022-11-13T18:12:03.605Z,61.28
2022-11-13T18:14:56.316Z,61.13
2022-11-13T18:17:52.403Z,61.36
2022-11-13T18:20:48.588Z,61.42
2022-11-13T18:23:44.129Z,61.52
2022-11-13T18:26:50.207Z,61.44
2022-11-13T18:29:39.160Z,61.37
2022-11-13T18:32:29.796Z,61.54
2022-11-13T18:35:29.188Z,61.43
2022-11-13T18:38:20.488Z,61.37
2022-11-13T18:41:12.813Z,61.34
2022-11-13T18:44:26.882Z,61.33
2022-11-13T18:47:19.133Z,61.28
2022-11-13T18:50:13.041Z,61.33
2022-11-13T18:53:01.906Z,61.29
2022-11-13T18:55:55.408Z,61.21
2022-11-13T18:58:52.447Z,61.23
2022-11-13T19:01:54.109Z,61.20
2022-11-13T19:04:48.119Z,61.26
2022-11-13T19:07:53.441Z,61.30
2022-11-13T19:10:58.538Z,61.28
2022-11-13T19:14:19.491Z,61.37
2022-11-13T19:17:33.589Z,61.16
2022-11-13T19:20:22.712Z,61.51
2022-11-13T19:23:09.707Z,61.19
2022-11-13T19:26:07.055Z,61.40
2022-11-13T19:29:04.011Z,61.19
2022-11-13T19:31:54.906Z,61.40
2022-11-13T19:34:55.159Z,61.36
2022-11-13T19:37:43.196Z,61.34
2022-11-13T19:40:32.575Z,61.46
2022-11-13T19:43:24.207Z,61.41
2022-11-13T19:46:26.517Z,61.53
2022-11-13T19:49:15.020Z,61.53
2022-11-13T19:52:07.991Z,61.47
2022-11-13T19:54:59.980Z,61.48
2022-11-13T19:58:00.425Z,61.46
2022-11-13T20:03:59.544Z,61.63
2022-11-13T20:07:06.786Z,61.51
2022-11-13T20:09:58.272Z,61.66
2022-11-13T20:12:47.348Z,61.60
2022-11-13T20:15:39.233Z,61.77
2022-11-13T20:18:31.064Z,61.89
2022-11-13T20:21:34.031Z,61.80
2022-11-13T20:24:29.095Z,61.84
2022-11-13T20:27:28.272Z,62.15
2022-11-13T20:30:30.555Z,62.16
2022-11-13T20:33:30.039Z,62.29
2022-11-13T20:39:44.488Z,62.51
2022-11-13T20:43:09.191Z,62.48
2022-11-13T20:46:26.462Z,62.49
2022-11-13T20:49:16.962Z,62.62
2022-11-13T20:55:20.195Z,62.68
2022-11-13T21:01:13.048Z,62.86
2022-11-13T21:04:13.117Z,63.12
2022-11-13T21:07:00.409Z,63.17
2022-11-13T21:09:57.763Z,63.13
2022-11-13T21:12:44.728Z,63.30
2022-11-13T21:15:36.347Z,63.40
2022-11-13T21:18:23.965Z,63.36
2022-11-13T21:21:11.519Z,63.57
2022-11-13T21:23:58.736Z,63.38
2022-11-13T21:26:47.655Z,63.57
2022-11-13T21:29:34.429Z,63.54
2022-11-13T21:32:22.368Z,63.55
2022-11-13T21:35:09.182Z,63.69
2022-11-13T21:37:55.515Z,63.70
2022-11-13T21:40:42.007Z,63.94
2022-11-13T21:43:28.627Z,63.85
2022-11-13T21:46:15.520Z,63.94
2022-11-13T21:49:05.822Z,64.07
2022-11-13T21:51:53.782Z,64.05
2022-11-13T21:54:40.181Z,64.05
2022-11-13T21:57:27.191Z,64.04
2022-11-13T22:00:16.671Z,63.98
2022-11-13T22:03:06.161Z,64.10
2022-11-13T22:06:09.543Z,64.10
2022-11-13T22:08:57.327Z,64.11
2022-11-13T22:11:44.234Z,64.14
2022-11-13T22:14:30.829Z,64.14
2022-11-13T22:17:17.685Z,64.23
2022-11-13T22:20:04.609Z,64.18
2022-11-13T22:22:52.829Z,64.33
2022-11-13T22:25:39.251Z,64.35
2022-11-13T22:28:25.670Z,64.31
2022-11-13T22:31:17.496Z,64.63
2022-11-13T22:34:04.288Z,64.57
2022-11-13T22:36:50.870Z,64.79
2022-11-13T22:39:39.043Z,64.79
2022-11-13T22:42:25.761Z,64.83
2022-11-13T22:45:23.407Z,64.74
2022-11-13T22:48:11.621Z,64.67
2022-11-13T22:51:04.566Z,64.78
2022-11-13T22:54:01.786Z,65.04
2022-11-13T22:56:49.876Z,64.82
2022-11-13T22:59:36.663Z,64.81
2022-11-13T23:02:24.261Z,64.84
2022-11-13T23:05:13.398Z,65.02
2022-11-13T23:08:00.141Z,64.92
2022-11-13T23:10:53.536Z,64.86
2022-11-13T23:13:42.693Z,65.00
2022-11-13T23:16:29.325Z,64.88
2022-11-13T23:19:15.848Z,64.89
2022-11-13T23:22:05.075Z,65.06
2022-11-13T23:24:52.043Z,65.07
2022-11-13T23:27:38.427Z,65.28
2022-11-13T23:30:26.557Z,65.19
2022-11-13T23:33:13.229Z,65.00
2022-11-13T23:36:00.570Z,65.07
2022-11-13T23:38:47.008Z,65.09
2022-11-13T23:41:34.962Z,65.35
2022-11-13T23:44:21.480Z,65.28
2022-11-13T23:47:09.842Z,65.24
2022-11-13T23:49:56.685Z,65.44
2022-11-13T23:52:46.001Z,65.29
2022-11-13T23:55:32.535Z,65.26
2022-11-13T23:58:19.781Z,65.29
